createdAt,value
2022-12-25T00:01:10.923Z,19.72
2022-12-25T00:03:41.399Z,19.71
2022-12-25T00:06:08.589Z,19.70
2022-12-25T00:08:38.781Z,19.66
2022-12-25T00:11:08.479Z,19.55
2022-12-25T00:13:35.577Z,19.62
2022-12-25T00:16:10.467Z,19.66
2022-12-25T00:18:38.370Z,19.67
2022-12-25T00:21:07.352Z,19.48
2022-12-25T00:23:36.886Z,19.53
2022-12-25T00:26:09.059Z,19.45
2022-12-25T00:28:39.097Z,19.50
2022-12-25T00:31:10.642Z,19.53
2022-12-25T00:33:38.937Z,19.53
2022-12-25T00:36:11.234Z,19.50
2022-12-25T00:38:48.403Z,19.44
2022-12-25T00:41:25.196Z,19.50
2022-12-25T00:43:54.950Z,19.50
2022-12-25T00:46:26.462Z,19.48
2022-12-25T00:49:04.340Z,19.48
2022-12-25T00:51:43.945Z,19.47
2022-12-25T00:54:16.606Z,19.42
2022-12-25T00:56:45.199Z,19.36
2022-12-25T01:03:01.685Z,19.38
2022-12-25T01:05:45.079Z,19.40
2022-12-25T01:08:15.947Z,19.38
2022-12-25T01:11:21.160Z,19.36
2022-12-25T01:14:17.683Z,19.35
2022-12-25T01:17:12.176Z,19.35
2022-12-25T01:19:48.759Z,19.30
2022-12-25T01:22:22.002Z,19.17
2022-12-25T01:25:04.331Z,19.13
2022-12-25T01:27:38.839Z,19.19
2022-12-25T01:30:20.738Z,19.10
2022-12-25T01:32:57.155Z,19.09
2022-12-25T01:35:36.653Z,19.12
2022-12-25T01:38:19.098Z,19.12
2022-12-25T01:40:56.432Z,19.15
2022-12-25T01:43:35.742Z,19.13
2022-12-25T01:46:11.586Z,19.09
2022-12-25T01:48:40.371Z,19.06
2022-12-25T01:54:41.609Z,19.00
2022-12-25T01:57:29.125Z,19.04
2022-12-25T02:00:10.612Z,19.03
2022-12-25T02:02:46.871Z,19.04
2022-12-25T02:05:21.165Z,18.98
2022-12-25T02:08:01.721Z,19.02
2022-12-25T02:10:36.825Z,19.01
2022-12-25T02:13:08.985Z,19.00
2022-12-25T02:16:23.176Z,18.97
2022-12-25T02:19:00.996Z,18.97
2022-12-25T02:21:54.608Z,18.99
2022-12-25T02:24:46.904Z,18.90
2022-12-25T02:27:22.258Z,18.84
2022-12-25T02:30:08.139Z,18.69
2022-12-25T02:32:39.634Z,18.67
2022-12-25T02:35:22.325Z,18.72
2022-12-25T02:37:55.366Z,18.68
2022-12-25T02:40:41.750Z,18.69
2022-12-25T02:43:39.668Z,18.65
2022-12-25T02:46:34.849Z,18.67
2022-12-25T02:49:39.603Z,18.68
2022-12-25T02:52:36.075Z,18.67
2022-12-25T02:55:29.094Z,18.59
2022-12-25T02:58:17.288Z,18.63
2022-12-25T03:01:12.304Z,18.62
2022-12-25T03:04:04.210Z,18.59
2022-12-25T03:06:52.828Z,18.60
2022-12-25T03:09:50.638Z,18.54
2022-12-25T03:12:36.793Z,18.52
2022-12-25T03:15:28.000Z,18.53
2022-12-25T03:17:58.444Z,18.43
2022-12-25T03:20:51.000Z,18.43
2022-12-25T03:23:42.300Z,18.38
2022-12-25T03:26:39.073Z,18.34
2022-12-25T03:29:20.009Z,18.39
2022-12-25T03:32:01.387Z,18.28
2022-12-25T03:34:55.206Z,18.26
2022-12-25T03:38:00.879Z,18.19
2022-12-25T03:40:46.838Z,18.11
2022-12-25T03:43:41.832Z,18.06
2022-12-25T03:46:33.221Z,18.03
2022-12-25T03:49:29.611Z,18.06
2022-12-25T03:52:17.529Z,17.98
2022-12-25T03:55:08.275Z,18.03
2022-12-25T03:57:54.922Z,17.94
2022-12-25T04:00:50.960Z,17.92
2022-12-25T04:03:39.536Z,17.89
2022-12-25T04:06:26.966Z,17.81
2022-12-25T04:09:16.831Z,17.75
2022-12-25T04:12:03.794Z,17.79
2022-12-25T04:14:59.159Z,17.73
2022-12-25T04:17:46.468Z,17.81
2022-12-25T04:20:35.377Z,17.74
2022-12-25T04:23:22.603Z,17.76
2022-12-25T04:26:11.606Z,17.75
2022-12-25T04:29:00.039Z,17.67
2022-12-25T04:31:49.831Z,17.66
2022-12-25T04:34:38.825Z,17.71
2022-12-25T04:37:07.128Z,17.69
2022-12-25T04:39:39.164Z,17.66
2022-12-25T04:42:08.559Z,17.66
2022-12-25T04:44:38.063Z,17.63
2022-12-25T04:47:11.639Z,17.59
2022-12-25T04:49:49.963Z,17.58
2022-12-25T04:52:18.827Z,17.66
2022-12-25T04:54:52.944Z,17.56
2022-12-25T04:57:26.243Z,17.55
2022-12-25T05:00:01.158Z,17.63
2022-12-25T05:02:34.531Z,17.64
2022-12-25T05:05:11.101Z,17.59
2022-12-25T05:07:39.932Z,17.59
2022-12-25T05:10:10.625Z,17.56
2022-12-25T05:12:41.820Z,17.47
2022-12-25T05:15:14.596Z,17.40
2022-12-25T05:17:43.162Z,17.37
2022-12-25T05:20:10.341Z,17.39
2022-12-25T05:22:43.109Z,17.32
2022-12-25T05:25:13.325Z,17.31
2022-12-25T05:27:43.832Z,17.08
2022-12-25T05:30:15.371Z,17.13
2022-12-25T05:32:52.926Z,16.93
2022-12-25T05:35:21.121Z,17.00
2022-12-25T05:37:49.480Z,17.03
2022-12-25T05:40:17.261Z,17.12
2022-12-25T05:42:49.567Z,17.11
2022-12-25T05:45:21.055Z,17.16
2022-12-25T05:47:53.945Z,17.14
2022-12-25T05:50:21.218Z,17.16
2022-12-25T05:52:49.599Z,17.12
2022-12-25T05:55:18.605Z,17.17
2022-12-25T05:57:48.212Z,17.22
2022-12-25T06:00:20.437Z,17.08
2022-12-25T06:02:52.114Z,17.15
2022-12-25T06:05:19.415Z,17.17
2022-12-25T06:07:47.317Z,17.19
2022-12-25T06:10:15.032Z,17.18
2022-12-25T06:12:47.201Z,17.18
2022-12-25T06:15:18.890Z,17.14
2022-12-25T06:17:49.081Z,17.15
2022-12-25T06:20:21.963Z,17.08
2022-12-25T06:22:56.860Z,17.04
2022-12-25T06:25:26.455Z,17.09
2022-12-25T06:28:00.594Z,17.08
2022-12-25T06:30:33.803Z,17.01
2022-12-25T06:33:02.498Z,17.06
2022-12-25T06:35:36.145Z,17.11
2022-12-25T06:38:11.505Z,17.04
2022-12-25T06:40:41.852Z,17.05
2022-12-25T06:43:14.446Z,17.02
2022-12-25T06:45:41.802Z,17.03
2022-12-25T06:48:12.856Z,17.01
2022-12-25T06:50:45.054Z,17.07
2022-12-25T06:53:12.883Z,16.99
2022-12-25T06:55:40.776Z,17.00
2022-12-25T06:58:17.272Z,16.94
2022-12-25T07:00:44.788Z,16.98
2022-12-25T07:03:19.829Z,17.01
2022-12-25T07:05:55.692Z,16.95
2022-12-25T07:08:27.565Z,16.94
2022-12-25T07:13:51.831Z,16.97
2022-12-25T07:16:20.715Z,16.98
2022-12-25T07:18:48.389Z,16.91
2022-12-25T07:21:22.813Z,16.87
2022-12-25T07:23:57.397Z,16.88
2022-12-25T07:26:27.631Z,16.89
2022-12-25T07:28:56.212Z,16.90
2022-12-25T07:31:32.183Z,16.87
2022-12-25T07:34:08.332Z,16.88
2022-12-25T07:36:40.693Z,16.90
2022-12-25T07:39:26.489Z,16.79
2022-12-25T07:41:57.741Z,16.81
2022-12-25T07:44:27.582Z,16.83
2022-12-25T07:46:54.559Z,16.82
2022-12-25T07:49:21.620Z,16.84
2022-12-25T07:51:50.893Z,16.87
2022-12-25T07:54:18.796Z,16.91
2022-12-25T07:56:45.842Z,16.94
2022-12-25T07:59:46.085Z,17.01
2022-12-25T08:02:13.347Z,16.98
2022-12-25T08:04:42.046Z,16.92
2022-12-25T08:07:09.088Z,16.99
2022-12-25T08:09:36.188Z,17.05
2022-12-25T08:12:03.219Z,17.08
2022-12-25T08:14:30.495Z,17.15
2022-12-25T08:16:59.985Z,17.18
2022-12-25T08:19:29.501Z,17.20
2022-12-25T08:22:04.196Z,17.24
2022-12-25T08:24:38.267Z,17.21
2022-12-25T08:27:08.796Z,17.20
2022-12-25T08:29:46.576Z,17.23
2022-12-25T08:32:16.756Z,17.23
2022-12-25T08:34:44.142Z,17.31
2022-12-25T08:37:13.955Z,17.32
2022-12-25T08:39:43.797Z,17.36
2022-12-25T08:42:13.540Z,17.41
2022-12-25T08:44:43.702Z,17.46
2022-12-25T08:47:13.317Z,17.50
2022-12-25T08:49:40.520Z,17.49
2022-12-25T08:52:08.108Z,17.52
2022-12-25T08:54:36.704Z,17.56
2022-12-25T08:57:04.372Z,17.56
2022-12-25T08:59:34.031Z,17.67
2022-12-25T09:02:05.305Z,17.84
2022-12-25T09:04:38.075Z,18.02
2022-12-25T09:07:05.274Z,18.22
2022-12-25T09:09:35.120Z,18.33
2022-12-25T09:12:05.314Z,18.40
2022-12-25T09:14:32.273Z,18.58
2022-12-25T09:17:07.652Z,18.76
2022-12-25T09:19:37.603Z,19.13
2022-12-25T09:22:08.546Z,19.47
2022-12-25T09:24:39.841Z,19.81
2022-12-25T09:27:10.585Z,20.19
2022-12-25T09:29:44.103Z,20.62
2022-12-25T09:32:11.627Z,20.83
2022-12-25T09:34:43.035Z,21.23
2022-12-25T09:37:13.129Z,21.67
2022-12-25T09:39:49.880Z,22.00
2022-12-25T09:42:29.630Z,22.31
2022-12-25T09:44:58.721Z,22.70
2022-12-25T09:47:34.529Z,22.97
2022-12-25T09:50:01.887Z,23.30
2022-12-25T09:52:40.025Z,23.48
2022-12-25T09:55:21.279Z,23.66
2022-12-25T09:58:04.379Z,23.90
2022-12-25T10:00:35.534Z,24.25
2022-12-25T10:03:12.513Z,24.62
2022-12-25T10:06:07.940Z,24.85
2022-12-25T10:08:42.485Z,25.10
2022-12-25T10:11:37.254Z,25.49
2022-12-25T10:14:19.157Z,25.60
2022-12-25T10:17:17.444Z,25.81
2022-12-25T10:19:47.635Z,26.24
2022-12-25T10:22:22.774Z,26.60
2022-12-25T10:24:51.642Z,26.75
2022-12-25T10:27:45.305Z,27.17
2022-12-25T10:30:18.642Z,27.54
2022-12-25T10:32:46.569Z,27.85
2022-12-25T10:35:22.096Z,28.09
2022-12-25T10:37:57.624Z,28.30
2022-12-25T10:40:42.328Z,28.68
2022-12-25T10:43:26.664Z,28.70
2022-12-25T10:45:54.006Z,28.95
2022-12-25T10:48:30.885Z,29.41
2022-12-25T10:51:03.994Z,29.72
2022-12-25T10:53:38.292Z,30.34
2022-12-25T10:56:08.745Z,30.63
2022-12-25T10:58:38.431Z,31.11
2022-12-25T11:01:08.852Z,31.60
2022-12-25T11:03:42.706Z,31.22
2022-12-25T11:06:22.277Z,31.92
2022-12-25T11:09:02.830Z,32.03
2022-12-25T11:11:32.913Z,32.91
2022-12-25T11:14:06.149Z,32.45
2022-12-25T11:16:42.431Z,31.88
2022-12-25T11:19:31.212Z,32.85
2022-12-25T11:21:59.906Z,32.55
2022-12-25T11:24:32.571Z,29.41
2022-12-25T11:27:04.236Z,29.57
2022-12-25T11:29:37.485Z,29.54
2022-12-25T11:32:08.571Z,30.91
2022-12-25T11:34:38.765Z,29.38
2022-12-25T11:37:17.791Z,27.60
2022-12-25T11:39:45.316Z,29.14
2022-12-25T11:42:21.473Z,29.20
2022-12-25T11:45:09.530Z,28.70
2022-12-25T11:47:41.606Z,29.56
2022-12-25T11:50:26.525Z,29.33
2022-12-25T11:53:01.749Z,28.36
2022-12-25T11:55:37.032Z,28.82
2022-12-25T11:58:11.676Z,28.05
2022-12-25T12:00:53.549Z,29.47
2022-12-25T12:03:32.260Z,31.40
2022-12-25T12:06:10.241Z,29.70
2022-12-25T12:08:41.492Z,28.93
2022-12-25T12:11:18.341Z,29.80
2022-12-25T12:14:11.034Z,30.93
2022-12-25T12:16:42.561Z,31.05
2022-12-25T12:19:37.329Z,31.53
2022-12-25T12:22:07.692Z,29.86
2022-12-25T12:24:37.422Z,29.20
2022-12-25T12:27:36.043Z,28.41
2022-12-25T12:30:07.526Z,28.84
2022-12-25T12:32:48.288Z,28.52
2022-12-25T12:35:21.717Z,27.51
2022-12-25T12:37:57.791Z,26.25
2022-12-25T12:40:50.498Z,28.73
2022-12-25T12:43:23.767Z,28.76
2022-12-25T12:46:23.030Z,27.00
2022-12-25T12:49:12.692Z,28.63
2022-12-25T12:51:42.399Z,27.93
2022-12-25T12:54:25.005Z,28.27
2022-12-25T12:57:05.342Z,27.82
2022-12-25T12:59:50.249Z,27.39
2022-12-25T13:02:39.037Z,28.93
2022-12-25T13:05:16.043Z,28.79
2022-12-25T13:07:45.999Z,27.94
2022-12-25T13:10:13.100Z,27.89
2022-12-25T13:12:52.863Z,27.73
2022-12-25T13:15:21.129Z,27.95
2022-12-25T13:17:50.432Z,27.85
2022-12-25T13:20:30.524Z,27.88
2022-12-25T13:23:05.599Z,27.81
2022-12-25T13:25:32.936Z,27.97
2022-12-25T13:28:00.116Z,28.61
2022-12-25T13:30:32.687Z,28.85
2022-12-25T13:33:05.513Z,29.71
2022-12-25T13:35:38.464Z,29.05
2022-12-25T13:38:10.672Z,28.16
2022-12-25T13:40:59.775Z,28.76
2022-12-25T13:43:27.488Z,28.86
2022-12-25T13:45:59.628Z,28.24
2022-12-25T13:48:32.271Z,28.60
2022-12-25T13:51:13.132Z,27.36
2022-12-25T13:53:40.224Z,27.66
2022-12-25T13:56:11.237Z,28.31
2022-12-25T13:58:48.889Z,27.91
2022-12-25T14:01:21.019Z,26.62
2022-12-25T14:06:46.262Z,27.57
2022-12-25T14:09:19.000Z,27.62
2022-12-25T14:11:49.893Z,27.33
2022-12-25T14:14:22.614Z,27.82
2022-12-25T14:16:54.250Z,28.30
2022-12-25T14:19:32.677Z,27.87
2022-12-25T14:22:07.735Z,27.36
2022-12-25T14:24:35.331Z,27.93
2022-12-25T14:27:17.600Z,27.90
2022-12-25T14:29:45.919Z,28.17
2022-12-25T14:32:24.546Z,28.03
2022-12-25T14:34:56.365Z,28.23
2022-12-25T14:37:25.644Z,27.00
2022-12-25T14:40:15.833Z,27.55
2022-12-25T14:42:45.543Z,27.48
2022-12-25T14:45:29.132Z,26.52
2022-12-25T14:48:03.898Z,25.92
2022-12-25T14:50:34.045Z,26.61
2022-12-25T14:53:01.591Z,25.80
2022-12-25T14:55:35.236Z,26.66
2022-12-25T14:58:05.193Z,25.36
2022-12-25T15:00:35.343Z,26.01
2022-12-25T15:03:03.934Z,25.53
2022-12-25T15:05:40.262Z,25.39
2022-12-25T15:08:16.676Z,25.87
2022-12-25T15:11:01.578Z,25.34
2022-12-25T15:13:29.552Z,24.74
2022-12-25T15:15:56.686Z,24.66
2022-12-25T15:18:25.183Z,24.68
2022-12-25T15:20:57.135Z,24.85
2022-12-25T15:23:25.611Z,24.85
2022-12-25T15:25:52.818Z,24.96
2022-12-25T15:28:24.295Z,24.68
2022-12-25T15:30:59.093Z,23.96
2022-12-25T15:33:42.228Z,23.43
2022-12-25T15:36:18.747Z,24.02
2022-12-25T15:38:46.062Z,23.72
2022-12-25T15:41:49.893Z,22.88
2022-12-25T15:44:34.258Z,22.03
2022-12-25T15:47:01.286Z,21.62
2022-12-25T15:49:30.211Z,21.79
2022-12-25T15:51:58.860Z,21.61
2022-12-25T15:54:26.041Z,22.19
2022-12-25T15:56:55.026Z,21.94
2022-12-25T15:59:22.568Z,22.37
2022-12-25T16:01:53.404Z,21.98
2022-12-25T16:04:26.748Z,22.41
2022-12-25T16:06:56.320Z,22.24
2022-12-25T16:09:27.814Z,22.47
2022-12-25T16:11:56.095Z,22.40
2022-12-25T16:14:25.572Z,22.38
2022-12-25T16:16:52.556Z,22.16
2022-12-25T16:19:22.164Z,21.49
2022-12-25T16:21:54.261Z,21.64
2022-12-25T16:24:22.541Z,21.71
2022-12-25T16:26:55.256Z,22.17
2022-12-25T16:29:22.977Z,22.11
2022-12-25T16:31:52.273Z,21.99
2022-12-25T16:34:25.019Z,21.99
2022-12-25T16:36:56.615Z,21.56
2022-12-25T16:39:23.892Z,21.96
2022-12-25T16:41:53.474Z,21.78
2022-12-25T16:44:20.545Z,21.39
2022-12-25T16:46:51.555Z,21.42
2022-12-25T16:49:21.598Z,21.69
2022-12-25T16:51:51.822Z,21.07
2022-12-25T16:54:21.517Z,21.56
2022-12-25T16:59:36.239Z,21.32
2022-12-25T17:02:03.565Z,21.29
2022-12-25T17:04:38.281Z,21.18
2022-12-25T17:07:12.399Z,21.37
2022-12-25T17:09:52.865Z,20.82
2022-12-25T17:12:23.172Z,21.29
2022-12-25T17:14:51.187Z,20.82
2022-12-25T17:17:18.410Z,20.76
2022-12-25T17:19:45.442Z,21.04
2022-12-25T17:22:14.592Z,21.26
2022-12-25T17:24:45.313Z,21.28
2022-12-25T17:27:18.285Z,20.79
2022-12-25T17:29:48.771Z,20.95
2022-12-25T17:32:15.826Z,20.55
2022-12-25T17:34:42.882Z,20.44
2022-12-25T17:37:09.980Z,20.26
2022-12-25T17:39:37.057Z,20.27
2022-12-25T17:42:07.783Z,20.24
2022-12-25T17:44:35.908Z,20.05
2022-12-25T17:47:08.094Z,20.30
2022-12-25T17:49:37.707Z,20.15
2022-12-25T17:52:04.742Z,20.09
2022-12-25T17:54:31.791Z,19.86
2022-12-25T17:57:07.947Z,19.82
2022-12-25T17:59:41.357Z,19.62
2022-12-25T18:02:16.332Z,19.95
2022-12-25T18:04:47.473Z,19.92
2022-12-25T18:07:14.684Z,20.27
2022-12-25T18:09:52.349Z,20.21
2022-12-25T18:12:19.404Z,19.95
2022-12-25T18:14:46.444Z,19.84
2022-12-25T18:17:14.095Z,20.24
2022-12-25T18:19:44.366Z,20.12
2022-12-25T18:22:13.928Z,19.79
2022-12-25T18:24:44.120Z,19.69
2022-12-25T18:27:14.385Z,19.83
2022-12-25T18:29:41.507Z,19.81
2022-12-25T18:32:09.373Z,19.92
2022-12-25T18:34:36.469Z,19.87
2022-12-25T18:37:03.671Z,19.84
2022-12-25T18:39:41.969Z,19.66
2022-12-25T18:42:37.363Z,19.72
2022-12-25T18:45:07.975Z,19.84
2022-12-25T18:47:35.581Z,19.79
2022-12-25T18:50:02.532Z,19.77
2022-12-25T18:52:48.000Z,19.70
2022-12-25T18:55:16.694Z,19.95
2022-12-25T18:57:45.772Z,19.91
2022-12-25T19:00:12.877Z,20.13
2022-12-25T19:02:40.202Z,20.18
2022-12-25T19:05:18.006Z,20.03
2022-12-25T19:07:47.362Z,20.29
2022-12-25T19:15:47.963Z,20.16
2022-12-25T19:18:18.747Z,20.24
2022-12-25T19:20:46.923Z,20.24
2022-12-25T19:23:15.532Z,20.24
2022-12-25T19:25:59.557Z,20.26
2022-12-25T19:28:36.251Z,20.38
2022-12-25T19:31:08.269Z,20.41
2022-12-25T19:33:43.136Z,20.31
2022-12-25T19:39:22.903Z,20.32
2022-12-25T19:41:57.981Z,20.36
2022-12-25T19:44:32.671Z,20.39
2022-12-25T19:47:09.252Z,20.34
2022-12-25T19:50:04.257Z,20.34
2022-12-25T19:52:42.988Z,20.37
2022-12-25T19:55:23.714Z,20.34
2022-12-25T19:57:51.685Z,20.36
2022-12-25T20:00:24.278Z,20.30
2022-12-25T20:05:57.992Z,20.32
2022-12-25T20:08:25.374Z,20.36
2022-12-25T20:10:53.530Z,20.40
2022-12-25T20:13:27.625Z,20.40
2022-12-25T20:16:09.191Z,20.45
2022-12-25T20:18:51.788Z,20.41
2022-12-25T20:21:24.849Z,20.34
2022-12-25T20:24:02.513Z,20.30
2022-12-25T20:26:35.409Z,20.31
2022-12-25T20:29:18.489Z,20.28
2022-12-25T20:31:47.565Z,20.28
2022-12-25T20:34:20.610Z,20.29
2022-12-25T20:36:53.352Z,20.31
2022-12-25T20:39:29.465Z,20.21
2022-12-25T20:42:02.323Z,20.14
2022-12-25T20:44:35.006Z,20.18
2022-12-25T20:47:05.837Z,20.19
2022-12-25T20:49:43.057Z,20.25
2022-12-25T20:52:20.783Z,20.20
2022-12-25T20:54:50.228Z,20.22
2022-12-25T20:57:23.489Z,20.21
2022-12-25T20:59:53.457Z,20.15
2022-12-25T21:02:35.467Z,20.15
2022-12-25T21:05:08.145Z,20.10
2022-12-25T21:07:35.599Z,20.02
2022-12-25T21:10:02.754Z,19.82
2022-12-25T21:12:30.648Z,19.93
2022-12-25T21:14:57.727Z,20.03
2022-12-25T21:17:24.845Z,20.02
2022-12-25T21:19:51.860Z,20.05
2022-12-25T21:25:55.547Z,19.96
2022-12-25T21:28:30.365Z,19.96
2022-12-25T21:31:06.674Z,19.92
2022-12-25T21:33:55.212Z,19.88
2022-12-25T21:36:35.588Z,19.77
2022-12-25T21:39:14.591Z,19.80
2022-12-25T21:44:30.518Z,19.64
2022-12-25T21:47:02.670Z,19.68
2022-12-25T21:49:56.600Z,19.68
2022-12-25T21:52:32.882Z,19.75
2022-12-25T21:55:06.097Z,19.69
2022-12-25T21:57:33.238Z,19.66
2022-12-25T22:00:18.176Z,19.71
2022-12-25T22:02:53.951Z,19.66
2022-12-25T22:08:35.316Z,19.67
2022-12-25T22:11:04.504Z,19.53
2022-12-25T22:13:53.013Z,19.52
2022-12-25T22:16:49.742Z,19.49
2022-12-25T22:19:45.142Z,19.47
2022-12-25T22:22:22.975Z,19.51
2022-12-25T22:25:01.587Z,19.41
2022-12-25T22:27:40.758Z,19.39
2022-12-25T22:30:15.027Z,19.36
2022-12-25T22:32:50.712Z,19.40
2022-12-25T22:35:21.513Z,19.37
2022-12-25T22:37:52.294Z,19.39
2022-12-25T22:40:22.941Z,19.40
2022-12-25T22:42:54.620Z,19.28
2022-12-25T22:45:21.621Z,19.32
2022-12-25T22:47:52.303Z,19.29
2022-12-25T22:50:22.321Z,19.32
2022-12-25T22:53:06.553Z,19.25
2022-12-25T22:55:42.669Z,19.27
2022-12-25T22:58:15.692Z,19.22
2022-12-25T23:00:50.445Z,19.19
2022-12-25T23:03:20.516Z,19.19
2022-12-25T23:05:55.701Z,19.15
2022-12-25T23:08:26.819Z,19.13
2022-12-25T23:11:03.814Z,19.16
2022-12-25T23:14:00.928Z,19.12
2022-12-25T23:19:45.272Z,19.01
2022-12-25T23:22:42.027Z,18.93
2022-12-25T23:25:33.757Z,18.98
2022-12-25T23:28:15.050Z,18.95
2022-12-25T23:30:44.366Z,19.02
2022-12-25T23:33:13.594Z,19.02
2022-12-25T23:35:44.596Z,19.03
2022-12-25T23:38:13.792Z,18.99
2022-12-25T23:40:41.094Z,19.00
2022-12-25T23:43:13.219Z,19.01
2022-12-25T23:45:45.321Z,18.99
2022-12-25T23:48:15.787Z,18.96
2022-12-25T23:50:56.627Z,18.92
2022-12-25T23:53:26.359Z,18.79
2022-12-25T23:55:55.876Z,18.73
2022-12-25T23:58:30.553Z,18.69
